sensor_id;sensor_type;location;lat;lon;timestamp;P1;durP1;ratioP1;P2;durP2;ratioP2
18917;SDS011;9591;52.742;13.650;2023-08-20T00:02:01;22.87;;;13.20;;
18917;SDS011;9591;52.742;13.650;2023-08-20T00:04:48;23.33;;;13.63;;
18917;SDS011;9591;52.742;13.650;2023-08-20T00:07:44;21.50;;;12.93;;
18917;SDS011;9591;52.742;13.650;2023-08-20T00:10:32;19.50;;;13.00;;
18917;SDS011;9591;52.742;13.650;2023-08-20T00:13:21;22.13;;;13.07;;
18917;SDS011;9591;52.742;13.650;2023-08-20T00:16:09;22.10;;;13.97;;
18917;SDS011;9591;52.742;13.650;2023-08-20T00:18:58;18.97;;;12.83;;
18917;SDS011;9591;52.742;13.650;2023-08-20T00:21:45;21.80;;;13.50;;
18917;SDS011;9591;52.742;13.650;2023-08-20T00:24:47;20.87;;;13.23;;
18917;SDS011;9591;52.742;13.650;2023-08-20T00:27:34;18.43;;;12.33;;
18917;SDS011;9591;52.742;13.650;2023-08-20T00:30:23;20.37;;;13.43;;
18917;SDS011;9591;52.742;13.650;2023-08-20T00:33:11;20.57;;;12.93;;
18917;SDS011;9591;52.742;13.650;2023-08-20T00:36:02;22.30;;;13.13;;
18917;SDS011;9591;52.742;13.650;2023-08-20T00:38:50;19.70;;;13.40;;
18917;SDS011;9591;52.742;13.650;2023-08-20T00:41:44;18.17;;;12.53;;
18917;SDS011;9591;52.742;13.650;2023-08-20T00:44:32;19.83;;;14.00;;
18917;SDS011;9591;52.742;13.650;2023-08-20T00:47:21;29.00;;;13.90;;
18917;SDS011;9591;52.742;13.650;2023-08-20T00:50:26;26.93;;;15.53;;
18917;SDS011;9591;52.742;13.650;2023-08-20T00:53:20;22.57;;;13.40;;
18917;SDS011;9591;52.742;13.650;2023-08-20T00:56:06;20.40;;;13.23;;
18917;SDS011;9591;52.742;13.650;2023-08-20T00:58:56;22.47;;;14.87;;
18917;SDS011;9591;52.742;13.650;2023-08-20T01:01:44;21.93;;;13.67;;
18917;SDS011;9591;52.742;13.650;2023-08-20T01:04:33;21.33;;;13.80;;
18917;SDS011;9591;52.742;13.650;2023-08-20T01:07:23;21.63;;;13.63;;
18917;SDS011;9591;52.742;13.650;2023-08-20T01:10:18;24.47;;;14.17;;
18917;SDS011;9591;52.742;13.650;2023-08-20T01:13:13;20.90;;;13.30;;
18917;SDS011;9591;52.742;13.650;2023-08-20T01:16:02;19.70;;;13.67;;
18917;SDS011;9591;52.742;13.650;2023-08-20T01:18:50;21.23;;;14.10;;
18917;SDS011;9591;52.742;13.650;2023-08-20T01:21:39;23.43;;;14.20;;
18917;SDS011;9591;52.742;13.650;2023-08-20T01:24:33;23.57;;;14.20;;
18917;SDS011;9591;52.742;13.650;2023-08-20T01:27:35;22.33;;;14.10;;
18917;SDS011;9591;52.742;13.650;2023-08-20T01:30:46;21.43;;;14.00;;
18917;SDS011;9591;52.742;13.650;2023-08-20T01:33:33;25.93;;;14.13;;
18917;SDS011;9591;52.742;13.650;2023-08-20T01:36:21;21.67;;;14.13;;
18917;SDS011;9591;52.742;13.650;2023-08-20T01:39:08;22.67;;;13.00;;
18917;SDS011;9591;52.742;13.650;2023-08-20T01:41:55;22.10;;;13.67;;
18917;SDS011;9591;52.742;13.650;2023-08-20T01:44:44;22.27;;;13.80;;
18917;SDS011;9591;52.742;13.650;2023-08-20T01:47:33;22.70;;;13.97;;
18917;SDS011;9591;52.742;13.650;2023-08-20T01:50:21;23.90;;;13.40;;
18917;SDS011;9591;52.742;13.650;2023-08-20T01:53:08;22.73;;;14.87;;
18917;SDS011;9591;52.742;13.650;2023-08-20T01:55:56;23.07;;;14.33;;
18917;SDS011;9591;52.742;13.650;2023-08-20T01:58:43;25.63;;;14.60;;
18917;SDS011;9591;52.742;13.650;2023-08-20T02:01:30;23.33;;;13.83;;
18917;SDS011;9591;52.742;13.650;2023-08-20T02:04:19;22.70;;;14.53;;
18917;SDS011;9591;52.742;13.650;2023-08-20T02:07:06;25.30;;;14.97;;
18917;SDS011;9591;52.742;13.650;2023-08-20T02:09:53;22.07;;;14.67;;
18917;SDS011;9591;52.742;13.650;2023-08-20T02:12:40;21.77;;;14.20;;
18917;SDS011;9591;52.742;13.650;2023-08-20T02:15:28;22.40;;;14.93;;
18917;SDS011;9591;52.742;13.650;2023-08-20T02:18:17;27.13;;;15.53;;
18917;SDS011;9591;52.742;13.650;2023-08-20T02:21:05;24.33;;;14.77;;
18917;SDS011;9591;52.742;13.650;2023-08-20T02:23:52;25.70;;;14.73;;
18917;SDS011;9591;52.742;13.650;2023-08-20T02:26:40;23.70;;;14.37;;
18917;SDS011;9591;52.742;13.650;2023-08-20T02:29:27;24.53;;;14.93;;
18917;SDS011;9591;52.742;13.650;2023-08-20T02:32:14;24.90;;;14.83;;
18917;SDS011;9591;52.742;13.650;2023-08-20T02:35:00;26.13;;;14.33;;
18917;SDS011;9591;52.742;13.650;2023-08-20T02:37:52;21.20;;;13.93;;
18917;SDS011;9591;52.742;13.650;2023-08-20T02:40:39;22.20;;;13.63;;
18917;SDS011;9591;52.742;13.650;2023-08-20T02:43:27;21.17;;;14.00;;
18917;SDS011;9591;52.742;13.650;2023-08-20T02:46:14;22.70;;;13.67;;
18917;SDS011;9591;52.742;13.650;2023-08-20T02:49:01;24.87;;;13.33;;
18917;SDS011;9591;52.742;13.650;2023-08-20T02:51:48;23.63;;;13.83;;
18917;SDS011;9591;52.742;13.650;2023-08-20T02:54:37;23.53;;;13.97;;
18917;SDS011;9591;52.742;13.650;2023-08-20T02:57:23;26.37;;;14.10;;
18917;SDS011;9591;52.742;13.650;2023-08-20T03:00:11;22.27;;;13.73;;
18917;SDS011;9591;52.742;13.650;2023-08-20T03:03:00;23.70;;;13.47;;
18917;SDS011;9591;52.742;13.650;2023-08-20T03:05:50;20.73;;;12.83;;
18917;SDS011;9591;52.742;13.650;2023-08-20T03:08:37;19.87;;;12.80;;
18917;SDS011;9591;52.742;13.650;2023-08-20T03:11:26;24.97;;;13.30;;
18917;SDS011;9591;52.742;13.650;2023-08-20T03:14:14;20.17;;;12.67;;
18917;SDS011;9591;52.742;13.650;2023-08-20T03:17:01;27.87;;;13.53;;
18917;SDS011;9591;52.742;13.650;2023-08-20T03:19:55;20.27;;;13.40;;
18917;SDS011;9591;52.742;13.650;2023-08-20T03:22:44;20.20;;;12.40;;
18917;SDS011;9591;52.742;13.650;2023-08-20T03:25:32;20.37;;;12.83;;
18917;SDS011;9591;52.742;13.650;2023-08-20T03:28:21;17.60;;;12.20;;
18917;SDS011;9591;52.742;13.650;2023-08-20T03:31:08;20.97;;;13.00;;
18917;SDS011;9591;52.742;13.650;2023-08-20T03:33:58;22.77;;;11.80;;
18917;SDS011;9591;52.742;13.650;2023-08-20T03:36:46;20.80;;;11.87;;
18917;SDS011;9591;52.742;13.650;2023-08-20T03:39:32;20.97;;;11.93;;
18917;SDS011;9591;52.742;13.650;2023-08-20T03:42:19;24.93;;;12.43;;
18917;SDS011;9591;52.742;13.650;2023-08-20T03:45:08;20.77;;;11.97;;
18917;SDS011;9591;52.742;13.650;2023-08-20T03:47:55;21.67;;;12.43;;
18917;SDS011;9591;52.742;13.650;2023-08-20T03:50:42;19.93;;;11.60;;
18917;SDS011;9591;52.742;13.650;2023-08-20T03:53:29;21.33;;;11.87;;
18917;SDS011;9591;52.742;13.650;2023-08-20T03:56:16;18.47;;;11.83;;
18917;SDS011;9591;52.742;13.650;2023-08-20T03:59:03;22.50;;;11.20;;
18917;SDS011;9591;52.742;13.650;2023-08-20T04:01:52;22.63;;;12.27;;
18917;SDS011;9591;52.742;13.650;2023-08-20T04:04:39;20.10;;;10.97;;
18917;SDS011;9591;52.742;13.650;2023-08-20T04:07:26;18.33;;;11.63;;
18917;SDS011;9591;52.742;13.650;2023-08-20T04:10:13;21.40;;;11.10;;
18917;SDS011;9591;52.742;13.650;2023-08-20T04:13:00;16.87;;;10.70;;
18917;SDS011;9591;52.742;13.650;2023-08-20T04:15:48;17.63;;;10.47;;
18917;SDS011;9591;52.742;13.650;2023-08-20T04:18:36;19.63;;;11.10;;
18917;SDS011;9591;52.742;13.650;2023-08-20T04:21:23;22.10;;;11.53;;
18917;SDS011;9591;52.742;13.650;2023-08-20T04:24:10;22.83;;;10.47;;
18917;SDS011;9591;52.742;13.650;2023-08-20T04:26:57;18.27;;;10.57;;
18917;SDS011;9591;52.742;13.650;2023-08-20T04:29:46;20.07;;;11.00;;
18917;SDS011;9591;52.742;13.650;2023-08-20T04:32:33;20.50;;;10.93;;
18917;SDS011;9591;52.742;13.650;2023-08-20T04:35:22;18.43;;;10.20;;
18917;SDS011;9591;52.742;13.650;2023-08-20T04:38:09;17.00;;;10.20;;
18917;SDS011;9591;52.742;13.650;2023-08-20T04:40:56;18.27;;;10.43;;
18917;SDS011;9591;52.742;13.650;2023-08-20T04:43:44;17.10;;;10.87;;
18917;SDS011;9591;52.742;13.650;2023-08-20T04:46:31;18.57;;;9.30;;
18917;SDS011;9591;52.742;13.650;2023-08-20T04:49:18;19.73;;;9.00;;
18917;SDS011;9591;52.742;13.650;2023-08-20T04:52:06;18.93;;;10.13;;
18917;SDS011;9591;52.742;13.650;2023-08-20T04:54:53;17.37;;;9.57;;
18917;SDS011;9591;52.742;13.650;2023-08-20T04:57:40;18.50;;;9.53;;
18917;SDS011;9591;52.742;13.650;2023-08-20T05:00:28;16.53;;;9.53;;
18917;SDS011;9591;52.742;13.650;2023-08-20T05:03:28;18.67;;;9.93;;
18917;SDS011;9591;52.742;13.650;2023-08-20T05:06:15;16.30;;;9.43;;
18917;SDS011;9591;52.742;13.650;2023-08-20T05:09:03;15.87;;;9.40;;
18917;SDS011;9591;52.742;13.650;2023-08-20T05:12:05;15.03;;;9.10;;
18917;SDS011;9591;52.742;13.650;2023-08-20T05:14:52;14.07;;;8.37;;
18917;SDS011;9591;52.742;13.650;2023-08-20T05:17:39;12.50;;;8.77;;
18917;SDS011;9591;52.742;13.650;2023-08-20T05:20:26;16.67;;;9.10;;
18917;SDS011;9591;52.742;13.650;2023-08-20T05:23:13;16.23;;;9.50;;
18917;SDS011;9591;52.742;13.650;2023-08-20T05:26:01;11.27;;;7.97;;
18917;SDS011;9591;52.742;13.650;2023-08-20T05:28:49;14.10;;;7.73;;
18917;SDS011;9591;52.742;13.650;2023-08-20T05:31:36;17.00;;;8.40;;
18917;SDS011;9591;52.742;13.650;2023-08-20T05:34:23;13.10;;;7.67;;
18917;SDS011;9591;52.742;13.650;2023-08-20T05:37:10;13.30;;;7.47;;
18917;SDS011;9591;52.742;13.650;2023-08-20T05:39:57;12.53;;;8.67;;
18917;SDS011;9591;52.742;13.650;2023-08-20T05:42:45;14.10;;;8.27;;
18917;SDS011;9591;52.742;13.650;2023-08-20T05:45:36;15.80;;;7.57;;
18917;SDS011;9591;52.742;13.650;2023-08-20T05:48:23;12.97;;;8.13;;
18917;SDS011;9591;52.742;13.650;2023-08-20T05:51:10;11.97;;;8.47;;
18917;SDS011;9591;52.742;13.650;2023-08-20T05:53:57;11.70;;;7.97;;
18917;SDS011;9591;52.742;13.650;2023-08-20T05:56:44;13.23;;;8.17;;
18917;SDS011;9591;52.742;13.650;2023-08-20T05:59:32;13.60;;;8.33;;
18917;SDS011;9591;52.742;13.650;2023-08-20T06:02:19;12.87;;;7.83;;
18917;SDS011;9591;52.742;13.650;2023-08-20T06:05:07;12.43;;;8.10;;
18917;SDS011;9591;52.742;13.650;2023-08-20T06:07:54;14.50;;;7.87;;
18917;SDS011;9591;52.742;13.650;2023-08-20T06:10:41;12.93;;;8.53;;
18917;SDS011;9591;52.742;13.650;2023-08-20T06:13:28;15.03;;;8.23;;
18917;SDS011;9591;52.742;13.650;2023-08-20T06:16:16;11.80;;;7.80;;
18917;SDS011;9591;52.742;13.650;2023-08-20T06:19:04;13.43;;;8.10;;
18917;SDS011;9591;52.742;13.650;2023-08-20T06:21:51;13.13;;;7.73;;
18917;SDS011;9591;52.742;13.650;2023-08-20T06:24:38;13.90;;;8.40;;
18917;SDS011;9591;52.742;13.650;2023-08-20T06:27:26;16.60;;;8.67;;
18917;SDS011;9591;52.742;13.650;2023-08-20T06:30:13;11.70;;;7.63;;
18917;SDS011;9591;52.742;13.650;2023-08-20T06:33:03;14.07;;;7.90;;
18917;SDS011;9591;52.742;13.650;2023-08-20T06:35:50;16.77;;;7.97;;
18917;SDS011;9591;52.742;13.650;2023-08-20T06:38:37;14.57;;;8.23;;
18917;SDS011;9591;52.742;13.650;2023-08-20T06:41:24;12.77;;;7.70;;
18917;SDS011;9591;52.742;13.650;2023-08-20T06:44:11;13.00;;;8.10;;
18917;SDS011;9591;52.742;13.650;2023-08-20T06:46:58;10.23;;;7.63;;
18917;SDS011;9591;52.742;13.650;2023-08-20T06:49:49;14.43;;;8.57;;
18917;SDS011;9591;52.742;13.650;2023-08-20T06:52:35;14.00;;;7.80;;
18917;SDS011;9591;52.742;13.650;2023-08-20T06:55:22;14.30;;;8.27;;
18917;SDS011;9591;52.742;13.650;2023-08-20T06:58:09;13.63;;;8.77;;
18917;SDS011;9591;52.742;13.650;2023-08-20T07:00:56;16.63;;;8.20;;
18917;SDS011;9591;52.742;13.650;2023-08-20T07:03:52;11.77;;;7.97;;
18917;SDS011;9591;52.742;13.650;2023-08-20T07:06:40;11.10;;;8.20;;
18917;SDS011;9591;52.742;13.650;2023-08-20T07:09:27;12.17;;;8.20;;
18917;SDS011;9591;52.742;13.650;2023-08-20T07:12:14;13.13;;;8.00;;
18917;SDS011;9591;52.742;13.650;2023-08-20T07:15:01;11.93;;;7.37;;
18917;SDS011;9591;52.742;13.650;2023-08-20T07:17:49;13.43;;;7.93;;
18917;SDS011;9591;52.742;13.650;2023-08-20T07:20:37;13.17;;;8.37;;
18917;SDS011;9591;52.742;13.650;2023-08-20T07:23:31;13.07;;;7.20;;
18917;SDS011;9591;52.742;13.650;2023-08-20T07:26:19;13.10;;;7.93;;
18917;SDS011;9591;52.742;13.650;2023-08-20T07:29:11;15.10;;;8.43;;
18917;SDS011;9591;52.742;13.650;2023-08-20T07:32:05;18.00;;;8.83;;
18917;SDS011;9591;52.742;13.650;2023-08-20T07:34:54;17.00;;;8.70;;
18917;SDS011;9591;52.742;13.650;2023-08-20T07:37:42;15.87;;;8.80;;
18917;SDS011;9591;52.742;13.650;2023-08-20T07:40:35;14.33;;;8.37;;
18917;SDS011;9591;52.742;13.650;2023-08-20T07:43:23;17.13;;;8.40;;
18917;SDS011;9591;52.742;13.650;2023-08-20T07:46:11;12.83;;;8.63;;
18917;SDS011;9591;52.742;13.650;2023-08-20T07:48:57;13.87;;;8.27;;
18917;SDS011;9591;52.742;13.650;2023-08-20T07:51:44;36.37;;;9.53;;
18917;SDS011;9591;52.742;13.650;2023-08-20T07:54:31;15.80;;;8.77;;
18917;SDS011;9591;52.742;13.650;2023-08-20T07:57:20;14.43;;;8.27;;
18917;SDS011;9591;52.742;13.650;2023-08-20T08:00:09;11.77;;;8.17;;
18917;SDS011;9591;52.742;13.650;2023-08-20T08:02:58;13.83;;;9.13;;
18917;SDS011;9591;52.742;13.650;2023-08-20T08:05:46;14.50;;;8.97;;
18917;SDS011;9591;52.742;13.650;2023-08-20T08:08:33;16.50;;;9.03;;
18917;SDS011;9591;52.742;13.650;2023-08-20T08:11:20;16.67;;;8.60;;
18917;SDS011;9591;52.742;13.650;2023-08-20T08:14:22;15.90;;;8.63;;
18917;SDS011;9591;52.742;13.650;2023-08-20T08:17:09;13.50;;;9.00;;
18917;SDS011;9591;52.742;13.650;2023-08-20T08:19:56;16.40;;;8.40;;
18917;SDS011;9591;52.742;13.650;2023-08-20T08:22:43;12.33;;;7.70;;
18917;SDS011;9591;52.742;13.650;2023-08-20T08:25:30;20.83;;;9.13;;
18917;SDS011;9591;52.742;13.650;2023-08-20T08:28:17;16.50;;;8.20;;
18917;SDS011;9591;52.742;13.650;2023-08-20T08:31:05;13.87;;;8.53;;
18917;SDS011;9591;52.742;13.650;2023-08-20T08:33:52;13.17;;;8.83;;
18917;SDS011;9591;52.742;13.650;2023-08-20T08:36:39;15.37;;;8.67;;
18917;SDS011;9591;52.742;13.650;2023-08-20T08:39:26;18.80;;;9.27;;
18917;SDS011;9591;52.742;13.650;2023-08-20T08:42:13;15.90;;;8.30;;
18917;SDS011;9591;52.742;13.650;2023-08-20T08:45:01;16.10;;;8.27;;
18917;SDS011;9591;52.742;13.650;2023-08-20T08:47:50;13.83;;;8.73;;
18917;SDS011;9591;52.742;13.650;2023-08-20T08:50:39;15.33;;;8.80;;
18917;SDS011;9591;52.742;13.650;2023-08-20T08:53:26;14.53;;;8.63;;
18917;SDS011;9591;52.742;13.650;2023-08-20T08:56:13;16.53;;;8.57;;
18917;SDS011;9591;52.742;13.650;2023-08-20T08:59:00;18.33;;;8.57;;
18917;SDS011;9591;52.742;13.650;2023-08-20T09:01:48;12.27;;;8.50;;
18917;SDS011;9591;52.742;13.650;2023-08-20T09:04:38;17.10;;;8.00;;
18917;SDS011;9591;52.742;13.650;2023-08-20T09:07:25;12.90;;;8.50;;
18917;SDS011;9591;52.742;13.650;2023-08-20T09:10:12;15.40;;;9.40;;
18917;SDS011;9591;52.742;13.650;2023-08-20T09:13:03;15.67;;;9.07;;
18917;SDS011;9591;52.742;13.650;2023-08-20T09:15:50;14.30;;;9.17;;
18917;SDS011;9591;52.742;13.650;2023-08-20T09:18:38;15.07;;;9.13;;
18917;SDS011;9591;52.742;13.650;2023-08-20T09:21:27;12.83;;;8.40;;
18917;SDS011;9591;52.742;13.650;2023-08-20T09:24:15;13.63;;;8.57;;
18917;SDS011;9591;52.742;13.650;2023-08-20T09:27:03;15.13;;;8.60;;
18917;SDS011;9591;52.742;13.650;2023-08-20T09:29:51;14.87;;;8.43;;
18917;SDS011;9591;52.742;13.650;2023-08-20T09:32:38;13.17;;;8.73;;
18917;SDS011;9591;52.742;13.650;2023-08-20T09:35:25;15.60;;;8.43;;
18917;SDS011;9591;52.742;13.650;2023-08-20T09:38:13;13.00;;;9.23;;
18917;SDS011;9591;52.742;13.650;2023-08-20T09:41:00;13.03;;;8.70;;
18917;SDS011;9591;52.742;13.650;2023-08-20T09:43:47;16.77;;;9.30;;
18917;SDS011;9591;52.742;13.650;2023-08-20T09:46:39;13.43;;;8.30;;
18917;SDS011;9591;52.742;13.650;2023-08-20T09:49:29;16.03;;;8.63;;
18917;SDS011;9591;52.742;13.650;2023-08-20T09:52:18;12.17;;;8.07;;
18917;SDS011;9591;52.742;13.650;2023-08-20T09:55:16;13.83;;;8.83;;
18917;SDS011;9591;52.742;13.650;2023-08-20T09:58:06;12.90;;;7.53;;
18917;SDS011;9591;52.742;13.650;2023-08-20T10:00:56;12.30;;;8.90;;
18917;SDS011;9591;52.742;13.650;2023-08-20T10:03:44;18.07;;;9.00;;
18917;SDS011;9591;52.742;13.650;2023-08-20T10:06:31;13.33;;;8.13;;
18917;SDS011;9591;52.742;13.650;2023-08-20T10:09:20;13.33;;;8.23;;
18917;SDS011;9591;52.742;13.650;2023-08-20T10:12:09;13.90;;;8.80;;
18917;SDS011;9591;52.742;13.650;2023-08-20T10:14:56;16.70;;;9.13;;
18917;SDS011;9591;52.742;13.650;2023-08-20T10:17:44;16.23;;;9.40;;
18917;SDS011;9591;52.742;13.650;2023-08-20T10:20:32;12.27;;;8.80;;
18917;SDS011;9591;52.742;13.650;2023-08-20T10:23:19;13.60;;;8.10;;
18917;SDS011;9591;52.742;13.650;2023-08-20T10:26:08;14.40;;;8.70;;
18917;SDS011;9591;52.742;13.650;2023-08-20T10:32:17;13.73;;;8.37;;
18917;SDS011;9591;52.742;13.650;2023-08-20T10:35:04;15.00;;;8.27;;
18917;SDS011;9591;52.742;13.650;2023-08-20T10:38:00;12.53;;;7.00;;
18917;SDS011;9591;52.742;13.650;2023-08-20T10:40:49;12.60;;;7.10;;
18917;SDS011;9591;52.742;13.650;2023-08-20T10:43:39;12.83;;;7.20;;
18917;SDS011;9591;52.742;13.650;2023-08-20T10:46:27;10.53;;;6.47;;
18917;SDS011;9591;52.742;13.650;2023-08-20T10:49:17;8.80;;;6.37;;
18917;SDS011;9591;52.742;13.650;2023-08-20T10:52:04;9.17;;;6.40;;
18917;SDS011;9591;52.742;13.650;2023-08-20T10:54:52;12.60;;;7.57;;
18917;SDS011;9591;52.742;13.650;2023-08-20T10:57:40;9.33;;;6.67;;
18917;SDS011;9591;52.742;13.650;2023-08-20T11:00:27;11.30;;;7.50;;
18917;SDS011;9591;52.742;13.650;2023-08-20T11:03:15;11.53;;;6.73;;
18917;SDS011;9591;52.742;13.650;2023-08-20T11:06:03;11.77;;;7.57;;
18917;SDS011;9591;52.742;13.650;2023-08-20T11:08:51;10.20;;;6.97;;
18917;SDS011;9591;52.742;13.650;2023-08-20T11:11:38;11.13;;;7.13;;
18917;SDS011;9591;52.742;13.650;2023-08-20T11:14:25;11.47;;;7.50;;
18917;SDS011;9591;52.742;13.650;2023-08-20T11:17:12;10.67;;;7.63;;
18917;SDS011;9591;52.742;13.650;2023-08-20T11:20:00;11.10;;;7.37;;
18917;SDS011;9591;52.742;13.650;2023-08-20T11:22:54;10.20;;;7.03;;
18917;SDS011;9591;52.742;13.650;2023-08-20T11:25:41;11.33;;;7.47;;
18917;SDS011;9591;52.742;13.650;2023-08-20T11:28:28;9.57;;;6.50;;
18917;SDS011;9591;52.742;13.650;2023-08-20T11:31:15;10.20;;;7.20;;
18917;SDS011;9591;52.742;13.650;2023-08-20T11:34:02;11.97;;;6.80;;
18917;SDS011;9591;52.742;13.650;2023-08-20T11:36:50;10.73;;;7.27;;
18917;SDS011;9591;52.742;13.650;2023-08-20T11:39:39;8.83;;;5.90;;
18917;SDS011;9591;52.742;13.650;2023-08-20T11:42:27;11.73;;;6.87;;
18917;SDS011;9591;52.742;13.650;2023-08-20T11:45:14;34.07;;;5.60;;
18917;SDS011;9591;52.742;13.650;2023-08-20T11:48:01;14.23;;;5.40;;
18917;SDS011;9591;52.742;13.650;2023-08-20T11:50:49;7.00;;;4.53;;
18917;SDS011;9591;52.742;13.650;2023-08-20T11:53:36;5.50;;;4.10;;
18917;SDS011;9591;52.742;13.650;2023-08-20T11:56:28;4.93;;;3.80;;
18917;SDS011;9591;52.742;13.650;2023-08-20T11:59:15;5.20;;;3.43;;
18917;SDS011;9591;52.742;13.650;2023-08-20T12:02:03;4.00;;;3.30;;
18917;SDS011;9591;52.742;13.650;2023-08-20T12:04:50;3.33;;;2.90;;
18917;SDS011;9591;52.742;13.650;2023-08-20T12:07:37;5.20;;;3.03;;
18917;SDS011;9591;52.742;13.650;2023-08-20T12:10:24;3.40;;;3.00;;
18917;SDS011;9591;52.742;13.650;2023-08-20T12:13:13;4.50;;;2.73;;
18917;SDS011;9591;52.742;13.650;2023-08-20T12:16:00;3.17;;;2.80;;
18917;SDS011;9591;52.742;13.650;2023-08-20T12:18:51;2.80;;;2.60;;
18917;SDS011;9591;52.742;13.650;2023-08-20T12:21:40;4.20;;;2.83;;
18917;SDS011;9591;52.742;13.650;2023-08-20T12:24:29;3.00;;;2.30;;
18917;SDS011;9591;52.742;13.650;2023-08-20T12:27:16;4.53;;;3.20;;
18917;SDS011;9591;52.742;13.650;2023-08-20T12:30:09;4.10;;;2.40;;
18917;SDS011;9591;52.742;13.650;2023-08-20T12:32:58;5.03;;;2.47;;
18917;SDS011;9591;52.742;13.650;2023-08-20T12:35:45;4.60;;;2.80;;
18917;SDS011;9591;52.742;13.650;2023-08-20T12:38:31;7.27;;;2.77;;
18917;SDS011;9591;52.742;13.650;2023-08-20T12:41:19;3.20;;;2.90;;
18917;SDS011;9591;52.742;13.650;2023-08-20T12:44:06;5.37;;;2.63;;
18917;SDS011;9591;52.742;13.650;2023-08-20T12:46:54;5.37;;;2.53;;
18917;SDS011;9591;52.742;13.650;2023-08-20T12:49:41;2.97;;;2.67;;
18917;SDS011;9591;52.742;13.650;2023-08-20T12:52:29;6.70;;;2.80;;
18917;SDS011;9591;52.742;13.650;2023-08-20T12:55:17;3.70;;;2.70;;
18917;SDS011;9591;52.742;13.650;2023-08-20T12:58:04;3.13;;;2.70;;
18917;SDS011;9591;52.742;13.650;2023-08-20T13:00:51;2.60;;;2.27;;
18917;SDS011;9591;52.742;13.650;2023-08-20T13:03:40;4.70;;;2.57;;
18917;SDS011;9591;52.742;13.650;2023-08-20T13:06:27;3.83;;;2.07;;
18917;SDS011;9591;52.742;13.650;2023-08-20T13:09:15;3.07;;;2.13;;
18917;SDS011;9591;52.742;13.650;2023-08-20T13:12:02;2.30;;;2.10;;
18917;SDS011;9591;52.742;13.650;2023-08-20T13:14:54;4.13;;;2.57;;
18917;SDS011;9591;52.742;13.650;2023-08-20T13:17:42;2.10;;;1.90;;
18917;SDS011;9591;52.742;13.650;2023-08-20T13:20:31;3.07;;;2.00;;
18917;SDS011;9591;52.742;13.650;2023-08-20T13:23:18;6.30;;;2.03;;
18917;SDS011;9591;52.742;13.650;2023-08-20T13:26:05;4.00;;;1.80;;
18917;SDS011;9591;52.742;13.650;2023-08-20T13:28:54;2.37;;;1.80;;
18917;SDS011;9591;52.742;13.650;2023-08-20T13:31:41;4.00;;;1.80;;
18917;SDS011;9591;52.742;13.650;2023-08-20T13:34:28;4.10;;;1.80;;
18917;SDS011;9591;52.742;13.650;2023-08-20T13:37:27;1.40;;;1.30;;
18917;SDS011;9591;52.742;13.650;2023-08-20T13:40:16;2.30;;;1.23;;
18917;SDS011;9591;52.742;13.650;2023-08-20T13:43:03;2.27;;;1.40;;
18917;SDS011;9591;52.742;13.650;2023-08-20T13:45:50;1.90;;;1.70;;
18917;SDS011;9591;52.742;13.650;2023-08-20T13:48:37;3.50;;;1.53;;
18917;SDS011;9591;52.742;13.650;2023-08-20T13:51:24;3.30;;;1.40;;
18917;SDS011;9591;52.742;13.650;2023-08-20T13:54:12;1.93;;;1.27;;
18917;SDS011;9591;52.742;13.650;2023-08-20T13:56:59;1.93;;;1.40;;
18917;SDS011;9591;52.742;13.650;2023-08-20T13:59:46;2.20;;;1.40;;
18917;SDS011;9591;52.742;13.650;2023-08-20T14:02:33;1.97;;;1.23;;
18917;SDS011;9591;52.742;13.650;2023-08-20T14:05:24;2.53;;;1.30;;
18917;SDS011;9591;52.742;13.650;2023-08-20T14:08:12;1.83;;;1.20;;
18917;SDS011;9591;52.742;13.650;2023-08-20T14:11:00;3.40;;;1.17;;
18917;SDS011;9591;52.742;13.650;2023-08-20T14:13:47;2.77;;;1.10;;
18917;SDS011;9591;52.742;13.650;2023-08-20T14:16:40;2.80;;;1.40;;
18917;SDS011;9591;52.742;13.650;2023-08-20T14:19:27;5.73;;;1.17;;
18917;SDS011;9591;52.742;13.650;2023-08-20T14:22:14;8.67;;;1.63;;
18917;SDS011;9591;52.742;13.650;2023-08-20T14:25:01;2.13;;;1.13;;
18917;SDS011;9591;52.742;13.650;2023-08-20T14:27:51;3.07;;;1.17;;
18917;SDS011;9591;52.742;13.650;2023-08-20T14:30:38;2.37;;;1.23;;
18917;SDS011;9591;52.742;13.650;2023-08-20T14:33:26;4.90;;;1.37;;
18917;SDS011;9591;52.742;13.650;2023-08-20T14:36:14;6.97;;;1.87;;
18917;SDS011;9591;52.742;13.650;2023-08-20T14:39:00;3.00;;;1.60;;
18917;SDS011;9591;52.742;13.650;2023-08-20T14:41:50;3.00;;;1.30;;
18917;SDS011;9591;52.742;13.650;2023-08-20T14:44:38;3.80;;;1.30;;
18917;SDS011;9591;52.742;13.650;2023-08-20T14:47:25;3.87;;;1.53;;
18917;SDS011;9591;52.742;13.650;2023-08-20T14:50:13;3.37;;;1.43;;
18917;SDS011;9591;52.742;13.650;2023-08-20T14:53:03;4.67;;;1.60;;
18917;SDS011;9591;52.742;13.650;2023-08-20T14:55:50;5.60;;;1.60;;
18917;SDS011;9591;52.742;13.650;2023-08-20T14:58:37;5.00;;;1.40;;
18917;SDS011;9591;52.742;13.650;2023-08-20T15:01:27;1.97;;;1.50;;
18917;SDS011;9591;52.742;13.650;2023-08-20T15:04:14;2.03;;;1.27;;
18917;SDS011;9591;52.742;13.650;2023-08-20T15:07:01;2.90;;;1.30;;
18917;SDS011;9591;52.742;13.650;2023-08-20T15:09:50;2.33;;;1.53;;
18917;SDS011;9591;52.742;13.650;2023-08-20T15:12:37;4.27;;;1.40;;
18917;SDS011;9591;52.742;13.650;2023-08-20T15:15:25;1.70;;;1.10;;
18917;SDS011;9591;52.742;13.650;2023-08-20T15:18:17;2.13;;;1.30;;
18917;SDS011;9591;52.742;13.650;2023-08-20T15:21:05;2.90;;;1.60;;
18917;SDS011;9591;52.742;13.650;2023-08-20T15:23:55;4.80;;;1.47;;
18917;SDS011;9591;52.742;13.650;2023-08-20T15:26:42;2.33;;;1.20;;
18917;SDS011;9591;52.742;13.650;2023-08-20T15:29:29;5.00;;;1.40;;
18917;SDS011;9591;52.742;13.650;2023-08-20T15:32:16;1.60;;;1.40;;
18917;SDS011;9591;52.742;13.650;2023-08-20T15:35:06;4.57;;;1.30;;
18917;SDS011;9591;52.742;13.650;2023-08-20T15:37:55;2.47;;;1.33;;
18917;SDS011;9591;52.742;13.650;2023-08-20T15:40:42;5.50;;;1.47;;
18917;SDS011;9591;52.742;13.650;2023-08-20T15:43:29;3.50;;;1.30;;
18917;SDS011;9591;52.742;13.650;2023-08-20T15:46:15;3.73;;;1.40;;
18917;SDS011;9591;52.742;13.650;2023-08-20T15:49:02;2.80;;;1.30;;
18917;SDS011;9591;52.742;13.650;2023-08-20T15:51:51;4.83;;;1.40;;
18917;SDS011;9591;52.742;13.650;2023-08-20T15:54:38;2.77;;;1.30;;
18917;SDS011;9591;52.742;13.650;2023-08-20T15:57:26;5.87;;;1.40;;
18917;SDS011;9591;52.742;13.650;2023-08-20T16:00:14;3.90;;;1.30;;
18917;SDS011;9591;52.742;13.650;2023-08-20T16:03:01;1.20;;;1.10;;
18917;SDS011;9591;52.742;13.650;2023-08-20T16:05:48;1.73;;;1.23;;
18917;SDS011;9591;52.742;13.650;2023-08-20T16:08:36;3.40;;;1.33;;
18917;SDS011;9591;52.742;13.650;2023-08-20T16:11:23;3.17;;;1.23;;
18917;SDS011;9591;52.742;13.650;2023-08-20T16:14:10;5.27;;;1.40;;
18917;SDS011;9591;52.742;13.650;2023-08-20T16:16:58;3.80;;;1.50;;
18917;SDS011;9591;52.742;13.650;2023-08-20T16:19:44;2.37;;;0.90;;
18917;SDS011;9591;52.742;13.650;2023-08-20T16:22:31;5.60;;;1.60;;
18917;SDS011;9591;52.742;13.650;2023-08-20T16:25:20;2.50;;;1.20;;
18917;SDS011;9591;52.742;13.650;2023-08-20T16:28:06;3.93;;;1.27;;
18917;SDS011;9591;52.742;13.650;2023-08-20T16:30:56;2.20;;;1.27;;
18917;SDS011;9591;52.742;13.650;2023-08-20T16:33:44;1.20;;;1.10;;
18917;SDS011;9591;52.742;13.650;2023-08-20T16:36:31;2.93;;;1.40;;
18917;SDS011;9591;52.742;13.650;2023-08-20T16:39:20;2.13;;;1.10;;
18917;SDS011;9591;52.742;13.650;2023-08-20T16:42:08;6.40;;;1.27;;
18917;SDS011;9591;52.742;13.650;2023-08-20T16:44:55;5.57;;;1.60;;